ADDS METAR Data

Data at: 0743 UTC 24 Oct 2017

METAR for:KMQE (Milton/Blue Hills Ob, MA, US)
Text:KMQE 240656Z AUTO 15015G22KT 17/16 A3008 RMK AO1 PK WND 16026/0640 SLP193 T01720156
Temperature: 17.2°C ( 63°F)
Dewpoint: 15.6°C ( 60°F) [RH = 90%]
Pressure (altimeter):30.08 inches Hg (1018.7 mb) [Sea level pressure: 1019.3 mb]
Winds:from the SSE (150 degrees) at 17 MPH (15 knots; 7.7 m/s) gusting to 25 MPH (22 knots; 11.3 m/s)
QC Flag:automated observation with no human augmentation